sensor_id;sensor_type;location;lat;lon;timestamp;P1;P2;P0
62591;PMS5003;48659;41.622;2.276;2023-04-15T00:01:13;9;7;
62591;PMS5003;48659;41.622;2.276;2023-04-15T00:03:40;10;10;
62591;PMS5003;48659;41.622;2.276;2023-04-15T00:06:08;7;7;
62591;PMS5003;48659;41.622;2.276;2023-04-15T00:08:36;9;7;
62591;PMS5003;48659;41.622;2.276;2023-04-15T00:11:03;7;7;
62591;PMS5003;48659;41.622;2.276;2023-04-15T00:13:31;7;7;
62591;PMS5003;48659;41.622;2.276;2023-04-15T00:15:59;11;9;
62591;PMS5003;48659;41.622;2.276;2023-04-15T00:18:26;8;7;
62591;PMS5003;48659;41.622;2.276;2023-04-15T00:20:54;9;8;
62591;PMS5003;48659;41.622;2.276;2023-04-15T00:23:21;10;10;
62591;PMS5003;48659;41.622;2.276;2023-04-15T00:25:48;8;8;
62591;PMS5003;48659;41.622;2.276;2023-04-15T00:28:16;6;6;
62591;PMS5003;48659;41.622;2.276;2023-04-15T00:30:44;9;8;
62591;PMS5003;48659;41.622;2.276;2023-04-15T00:33:11;7;7;
62591;PMS5003;48659;41.622;2.276;2023-04-15T00:35:39;8;8;
62591;PMS5003;48659;41.622;2.276;2023-04-15T00:38:06;7;7;
62591;PMS5003;48659;41.622;2.276;2023-04-15T00:40:35;8;8;
62591;PMS5003;48659;41.622;2.276;2023-04-15T00:43:03;8;8;
62591;PMS5003;48659;41.622;2.276;2023-04-15T00:45:31;10;9;
62591;PMS5003;48659;41.622;2.276;2023-04-15T00:47:58;9;8;
62591;PMS5003;48659;41.622;2.276;2023-04-15T00:50:25;9;9;
62591;PMS5003;48659;41.622;2.276;2023-04-15T00:52:52;10;8;
62591;PMS5003;48659;41.622;2.276;2023-04-15T00:55:20;8;8;
62591;PMS5003;48659;41.622;2.276;2023-04-15T00:57:53;9;8;
62591;PMS5003;48659;41.622;2.276;2023-04-15T01:00:21;10;10;
62591;PMS5003;48659;41.622;2.276;2023-04-15T01:02:49;12;10;
62591;PMS5003;48659;41.622;2.276;2023-04-15T01:05:17;11;8;
62591;PMS5003;48659;41.622;2.276;2023-04-15T01:07:45;9;8;
62591;PMS5003;48659;41.622;2.276;2023-04-15T01:10:16;13;10;
62591;PMS5003;48659;41.622;2.276;2023-04-15T01:17:16;9;7;
62591;PMS5003;48659;41.622;2.276;2023-04-15T01:19:44;8;6;
62591;PMS5003;48659;41.622;2.276;2023-04-15T01:22:13;7;6;
62591;PMS5003;48659;41.622;2.276;2023-04-15T01:24:42;7;6;
62591;PMS5003;48659;41.622;2.276;2023-04-15T01:27:20;6;6;
62591;PMS5003;48659;41.622;2.276;2023-04-15T01:29:48;7;7;
62591;PMS5003;48659;41.622;2.276;2023-04-15T01:32:16;8;8;
62591;PMS5003;48659;41.622;2.276;2023-04-15T01:34:44;4;4;
62591;PMS5003;48659;41.622;2.276;2023-04-15T01:37:11;6;6;
62591;PMS5003;48659;41.622;2.276;2023-04-15T01:39:39;5;5;
62591;PMS5003;48659;41.622;2.276;2023-04-15T01:42:06;6;6;
62591;PMS5003;48659;41.622;2.276;2023-04-15T01:44:34;9;9;
62591;PMS5003;48659;41.622;2.276;2023-04-15T01:47:01;5;5;
62591;PMS5003;48659;41.622;2.276;2023-04-15T01:49:28;9;7;
62591;PMS5003;48659;41.622;2.276;2023-04-15T01:51:57;7;7;
62591;PMS5003;48659;41.622;2.276;2023-04-15T01:54:25;7;7;
62591;PMS5003;48659;41.622;2.276;2023-04-15T01:56:52;5;5;
62591;PMS5003;48659;41.622;2.276;2023-04-15T01:59:20;5;5;
62591;PMS5003;48659;41.622;2.276;2023-04-15T02:01:47;6;6;
62591;PMS5003;48659;41.622;2.276;2023-04-15T02:04:15;4;4;
62591;PMS5003;48659;41.622;2.276;2023-04-15T02:06:43;6;6;
62591;PMS5003;48659;41.622;2.276;2023-04-15T02:09:11;6;4;
62591;PMS5003;48659;41.622;2.276;2023-04-15T02:11:38;5;4;
62591;PMS5003;48659;41.622;2.276;2023-04-15T02:14:05;3;3;
62591;PMS5003;48659;41.622;2.276;2023-04-15T02:16:32;4;4;
62591;PMS5003;48659;41.622;2.276;2023-04-15T02:19:00;2;2;
62591;PMS5003;48659;41.622;2.276;2023-04-15T02:21:27;5;5;
62591;PMS5003;48659;41.622;2.276;2023-04-15T02:23:55;5;5;
62591;PMS5003;48659;41.622;2.276;2023-04-15T02:26:23;9;4;
62591;PMS5003;48659;41.622;2.276;2023-04-15T02:28:51;7;5;
62591;PMS5003;48659;41.622;2.276;2023-04-15T02:31:18;3;3;
62591;PMS5003;48659;41.622;2.276;2023-04-15T02:33:46;2;2;
62591;PMS5003;48659;41.622;2.276;2023-04-15T02:36:13;5;5;
62591;PMS5003;48659;41.622;2.276;2023-04-15T02:38:40;5;3;
62591;PMS5003;48659;41.622;2.276;2023-04-15T02:41:07;5;4;
62591;PMS5003;48659;41.622;2.276;2023-04-15T02:43:35;4;4;
62591;PMS5003;48659;41.622;2.276;2023-04-15T02:46:04;5;5;
62591;PMS5003;48659;41.622;2.276;2023-04-15T02:48:35;6;6;
62591;PMS5003;48659;41.622;2.276;2023-04-15T02:51:12;7;6;
62591;PMS5003;48659;41.622;2.276;2023-04-15T02:53:40;5;5;
62591;PMS5003;48659;41.622;2.276;2023-04-15T02:56:07;7;6;
62591;PMS5003;48659;41.622;2.276;2023-04-15T02:58:34;3;3;
62591;PMS5003;48659;41.622;2.276;2023-04-15T03:01:01;5;5;
62591;PMS5003;48659;41.622;2.276;2023-04-15T03:03:28;5;4;
62591;PMS5003;48659;41.622;2.276;2023-04-15T03:05:56;3;3;
62591;PMS5003;48659;41.622;2.276;2023-04-15T03:08:24;4;4;
62591;PMS5003;48659;41.622;2.276;2023-04-15T03:10:51;5;3;
62591;PMS5003;48659;41.622;2.276;2023-04-15T03:13:18;3;3;
62591;PMS5003;48659;41.622;2.276;2023-04-15T03:15:46;5;5;
62591;PMS5003;48659;41.622;2.276;2023-04-15T03:18:14;5;5;
62591;PMS5003;48659;41.622;2.276;2023-04-15T03:20:42;5;5;
62591;PMS5003;48659;41.622;2.276;2023-04-15T03:23:10;4;4;
62591;PMS5003;48659;41.622;2.276;2023-04-15T03:25:37;2;2;
62591;PMS5003;48659;41.622;2.276;2023-04-15T03:28:07;8;6;
62591;PMS5003;48659;41.622;2.276;2023-04-15T03:30:34;7;5;
62591;PMS5003;48659;41.622;2.276;2023-04-15T03:33:02;7;5;
62591;PMS5003;48659;41.622;2.276;2023-04-15T03:35:29;3;3;
62591;PMS5003;48659;41.622;2.276;2023-04-15T03:37:57;3;3;
62591;PMS5003;48659;41.622;2.276;2023-04-15T03:40:25;5;4;
62591;PMS5003;48659;41.622;2.276;2023-04-15T03:42:53;4;4;
62591;PMS5003;48659;41.622;2.276;2023-04-15T03:45:35;8;8;
62591;PMS5003;48659;41.622;2.276;2023-04-15T03:48:03;6;4;
62591;PMS5003;48659;41.622;2.276;2023-04-15T03:50:30;9;8;
62591;PMS5003;48659;41.622;2.276;2023-04-15T03:52:59;5;5;
62591;PMS5003;48659;41.622;2.276;2023-04-15T03:55:28;5;5;
62591;PMS5003;48659;41.622;2.276;2023-04-15T03:57:55;5;5;
62591;PMS5003;48659;41.622;2.276;2023-04-15T04:00:23;7;5;
62591;PMS5003;48659;41.622;2.276;2023-04-15T04:02:50;5;5;
62591;PMS5003;48659;41.622;2.276;2023-04-15T04:05:22;5;5;
62591;PMS5003;48659;41.622;2.276;2023-04-15T04:07:49;4;4;
62591;PMS5003;48659;41.622;2.276;2023-04-15T04:10:44;4;4;
62591;PMS5003;48659;41.622;2.276;2023-04-15T04:13:12;6;6;
62591;PMS5003;48659;41.622;2.276;2023-04-15T04:15:39;6;4;
62591;PMS5003;48659;41.622;2.276;2023-04-15T04:18:07;3;3;
62591;PMS5003;48659;41.622;2.276;2023-04-15T04:20:34;5;5;
62591;PMS5003;48659;41.622;2.276;2023-04-15T04:23:02;7;4;
62591;PMS5003;48659;41.622;2.276;2023-04-15T04:25:30;4;4;
62591;PMS5003;48659;41.622;2.276;2023-04-15T04:27:57;6;5;
62591;PMS5003;48659;41.622;2.276;2023-04-15T04:30:24;5;4;
62591;PMS5003;48659;41.622;2.276;2023-04-15T04:32:51;5;5;
62591;PMS5003;48659;41.622;2.276;2023-04-15T04:35:19;5;4;
62591;PMS5003;48659;41.622;2.276;2023-04-15T04:37:47;3;3;
62591;PMS5003;48659;41.622;2.276;2023-04-15T04:40:14;5;5;
62591;PMS5003;48659;41.622;2.276;2023-04-15T04:42:42;5;5;
62591;PMS5003;48659;41.622;2.276;2023-04-15T04:45:11;4;4;
62591;PMS5003;48659;41.622;2.276;2023-04-15T04:47:41;6;5;
62591;PMS5003;48659;41.622;2.276;2023-04-15T04:50:09;6;6;
62591;PMS5003;48659;41.622;2.276;2023-04-15T04:52:37;6;6;
62591;PMS5003;48659;41.622;2.276;2023-04-15T04:55:06;6;6;
62591;PMS5003;48659;41.622;2.276;2023-04-15T04:57:34;7;7;
62591;PMS5003;48659;41.622;2.276;2023-04-15T05:00:02;4;4;
62591;PMS5003;48659;41.622;2.276;2023-04-15T05:02:31;9;6;
62591;PMS5003;48659;41.622;2.276;2023-04-15T05:04:59;7;7;
62591;PMS5003;48659;41.622;2.276;2023-04-15T05:07:27;5;5;
62591;PMS5003;48659;41.622;2.276;2023-04-15T05:09:54;6;6;
62591;PMS5003;48659;41.622;2.276;2023-04-15T05:12:22;7;7;
62591;PMS5003;48659;41.622;2.276;2023-04-15T05:14:49;6;6;
62591;PMS5003;48659;41.622;2.276;2023-04-15T05:17:17;5;5;
62591;PMS5003;48659;41.622;2.276;2023-04-15T05:19:45;8;5;
62591;PMS5003;48659;41.622;2.276;2023-04-15T05:22:12;7;6;
62591;PMS5003;48659;41.622;2.276;2023-04-15T05:24:39;7;5;
62591;PMS5003;48659;41.622;2.276;2023-04-15T05:27:09;9;9;
62591;PMS5003;48659;41.622;2.276;2023-04-15T05:29:37;5;5;
62591;PMS5003;48659;41.622;2.276;2023-04-15T05:32:05;7;7;
62591;PMS5003;48659;41.622;2.276;2023-04-15T05:34:33;5;5;
62591;PMS5003;48659;41.622;2.276;2023-04-15T05:37:02;6;6;
62591;PMS5003;48659;41.622;2.276;2023-04-15T05:39:29;6;6;
62591;PMS5003;48659;41.622;2.276;2023-04-15T05:41:56;9;9;
62591;PMS5003;48659;41.622;2.276;2023-04-15T05:44:24;7;6;
62591;PMS5003;48659;41.622;2.276;2023-04-15T05:46:51;8;8;
62591;PMS5003;48659;41.622;2.276;2023-04-15T05:49:19;9;6;
62591;PMS5003;48659;41.622;2.276;2023-04-15T05:51:47;9;9;
62591;PMS5003;48659;41.622;2.276;2023-04-15T05:54:15;8;7;
62591;PMS5003;48659;41.622;2.276;2023-04-15T05:56:43;8;6;
62591;PMS5003;48659;41.622;2.276;2023-04-15T05:59:11;7;7;
62591;PMS5003;48659;41.622;2.276;2023-04-15T06:01:38;8;8;
62591;PMS5003;48659;41.622;2.276;2023-04-15T06:04:06;9;7;
62591;PMS5003;48659;41.622;2.276;2023-04-15T06:06:34;9;8;
62591;PMS5003;48659;41.622;2.276;2023-04-15T06:09:02;6;6;
62591;PMS5003;48659;41.622;2.276;2023-04-15T06:11:29;6;6;
62591;PMS5003;48659;41.622;2.276;2023-04-15T06:13:56;5;5;
62591;PMS5003;48659;41.622;2.276;2023-04-15T06:16:24;7;6;
62591;PMS5003;48659;41.622;2.276;2023-04-15T06:18:52;9;6;
62591;PMS5003;48659;41.622;2.276;2023-04-15T06:21:19;7;4;
62591;PMS5003;48659;41.622;2.276;2023-04-15T06:23:46;7;7;
62591;PMS5003;48659;41.622;2.276;2023-04-15T06:26:13;7;6;
62591;PMS5003;48659;41.622;2.276;2023-04-15T06:28:41;3;3;
62591;PMS5003;48659;41.622;2.276;2023-04-15T06:31:09;4;4;
62591;PMS5003;48659;41.622;2.276;2023-04-15T06:33:36;8;6;
62591;PMS5003;48659;41.622;2.276;2023-04-15T06:36:03;6;6;
62591;PMS5003;48659;41.622;2.276;2023-04-15T06:38:33;4;4;
62591;PMS5003;48659;41.622;2.276;2023-04-15T06:41:00;5;5;
62591;PMS5003;48659;41.622;2.276;2023-04-15T06:43:30;5;5;
62591;PMS5003;48659;41.622;2.276;2023-04-15T06:45:57;4;4;
62591;PMS5003;48659;41.622;2.276;2023-04-15T06:48:25;6;5;
62591;PMS5003;48659;41.622;2.276;2023-04-15T06:50:52;5;4;
62591;PMS5003;48659;41.622;2.276;2023-04-15T06:53:19;10;9;
62591;PMS5003;48659;41.622;2.276;2023-04-15T06:55:46;6;5;
62591;PMS5003;48659;41.622;2.276;2023-04-15T06:58:14;10;9;
62591;PMS5003;48659;41.622;2.276;2023-04-15T07:00:40;6;5;
62591;PMS5003;48659;41.622;2.276;2023-04-15T07:03:10;8;7;
62591;PMS5003;48659;41.622;2.276;2023-04-15T07:05:38;6;6;
62591;PMS5003;48659;41.622;2.276;2023-04-15T07:08:06;8;6;
62591;PMS5003;48659;41.622;2.276;2023-04-15T07:10:33;7;6;
62591;PMS5003;48659;41.622;2.276;2023-04-15T07:13:01;7;5;
62591;PMS5003;48659;41.622;2.276;2023-04-15T07:15:29;6;6;
62591;PMS5003;48659;41.622;2.276;2023-04-15T07:17:56;8;6;
62591;PMS5003;48659;41.622;2.276;2023-04-15T07:20:27;3;1;
62591;PMS5003;48659;41.622;2.276;2023-04-15T07:22:54;3;1;
62591;PMS5003;48659;41.622;2.276;2023-04-15T07:25:21;3;3;
62591;PMS5003;48659;41.622;2.276;2023-04-15T07:27:49;3;3;
62591;PMS5003;48659;41.622;2.276;2023-04-15T07:30:16;5;4;
62591;PMS5003;48659;41.622;2.276;2023-04-15T07:32:44;5;4;
62591;PMS5003;48659;41.622;2.276;2023-04-15T07:35:11;4;4;
62591;PMS5003;48659;41.622;2.276;2023-04-15T07:37:39;3;3;
62591;PMS5003;48659;41.622;2.276;2023-04-15T07:40:07;2;2;
62591;PMS5003;48659;41.622;2.276;2023-04-15T07:42:36;4;3;
62591;PMS5003;48659;41.622;2.276;2023-04-15T07:45:04;4;4;
62591;PMS5003;48659;41.622;2.276;2023-04-15T07:47:33;4;2;
62591;PMS5003;48659;41.622;2.276;2023-04-15T07:50:01;1;1;
62591;PMS5003;48659;41.622;2.276;2023-04-15T07:52:29;2;2;
62591;PMS5003;48659;41.622;2.276;2023-04-15T07:54:56;2;1;
62591;PMS5003;48659;41.622;2.276;2023-04-15T07:57:24;2;1;
62591;PMS5003;48659;41.622;2.276;2023-04-15T07:59:51;2;2;
62591;PMS5003;48659;41.622;2.276;2023-04-15T08:02:18;9;5;
62591;PMS5003;48659;41.622;2.276;2023-04-15T08:04:46;3;2;
62591;PMS5003;48659;41.622;2.276;2023-04-15T08:07:13;2;2;
62591;PMS5003;48659;41.622;2.276;2023-04-15T08:09:41;2;0;
62591;PMS5003;48659;41.622;2.276;2023-04-15T08:12:09;1;1;
62591;PMS5003;48659;41.622;2.276;2023-04-15T08:14:37;20;15;
62591;PMS5003;48659;41.622;2.276;2023-04-15T08:17:05;4;4;
62591;PMS5003;48659;41.622;2.276;2023-04-15T08:19:33;1;1;
62591;PMS5003;48659;41.622;2.276;2023-04-15T08:22:01;4;2;
62591;PMS5003;48659;41.622;2.276;2023-04-15T08:24:29;2;2;
62591;PMS5003;48659;41.622;2.276;2023-04-15T08:26:57;3;2;
62591;PMS5003;48659;41.622;2.276;2023-04-15T08:29:24;2;2;
62591;PMS5003;48659;41.622;2.276;2023-04-15T08:31:53;4;2;
62591;PMS5003;48659;41.622;2.276;2023-04-15T08:34:20;0;0;
62591;PMS5003;48659;41.622;2.276;2023-04-15T08:36:48;2;2;
62591;PMS5003;48659;41.622;2.276;2023-04-15T08:39:16;2;1;
62591;PMS5003;48659;41.622;2.276;2023-04-15T08:41:45;1;1;
62591;PMS5003;48659;41.622;2.276;2023-04-15T08:44:18;0;0;
62591;PMS5003;48659;41.622;2.276;2023-04-15T08:46:47;1;0;
62591;PMS5003;48659;41.622;2.276;2023-04-15T08:49:15;3;0;
62591;PMS5003;48659;41.622;2.276;2023-04-15T08:51:44;0;0;
62591;PMS5003;48659;41.622;2.276;2023-04-15T08:54:12;2;2;
62591;PMS5003;48659;41.622;2.276;2023-04-15T08:56:40;1;1;
62591;PMS5003;48659;41.622;2.276;2023-04-15T08:59:07;3;3;
62591;PMS5003;48659;41.622;2.276;2023-04-15T09:01:36;3;2;
62591;PMS5003;48659;41.622;2.276;2023-04-15T09:04:05;3;2;
62591;PMS5003;48659;41.622;2.276;2023-04-15T09:06:33;3;1;
62591;PMS5003;48659;41.622;2.276;2023-04-15T09:09:06;1;1;
62591;PMS5003;48659;41.622;2.276;2023-04-15T09:11:34;3;1;
62591;PMS5003;48659;41.622;2.276;2023-04-15T09:14:01;1;1;
62591;PMS5003;48659;41.622;2.276;2023-04-15T09:16:29;2;2;
62591;PMS5003;48659;41.622;2.276;2023-04-15T09:18:56;23;16;
62591;PMS5003;48659;41.622;2.276;2023-04-15T09:21:24;16;13;
62591;PMS5003;48659;41.622;2.276;2023-04-15T09:23:53;5;5;
62591;PMS5003;48659;41.622;2.276;2023-04-15T09:26:32;12;11;
62591;PMS5003;48659;41.622;2.276;2023-04-15T09:29:04;9;9;
62591;PMS5003;48659;41.622;2.276;2023-04-15T09:31:33;3;1;
62591;PMS5003;48659;41.622;2.276;2023-04-15T09:34:02;2;2;
62591;PMS5003;48659;41.622;2.276;2023-04-15T09:36:34;1;0;
62591;PMS5003;48659;41.622;2.276;2023-04-15T09:39:18;0;0;
62591;PMS5003;48659;41.622;2.276;2023-04-15T09:41:46;2;2;
62591;PMS5003;48659;41.622;2.276;2023-04-15T09:44:30;1;1;
62591;PMS5003;48659;41.622;2.276;2023-04-15T09:46:57;2;1;
62591;PMS5003;48659;41.622;2.276;2023-04-15T09:49:25;5;1;
62591;PMS5003;48659;41.622;2.276;2023-04-15T09:51:57;1;1;
62591;PMS5003;48659;41.622;2.276;2023-04-15T09:54:32;1;1;
62591;PMS5003;48659;41.622;2.276;2023-04-15T09:57:05;3;2;
62591;PMS5003;48659;41.622;2.276;2023-04-15T09:59:32;1;1;
62591;PMS5003;48659;41.622;2.276;2023-04-15T10:01:59;0;0;
62591;PMS5003;48659;41.622;2.276;2023-04-15T10:04:32;2;2;
62591;PMS5003;48659;41.622;2.276;2023-04-15T10:07:04;2;1;
62591;PMS5003;48659;41.622;2.276;2023-04-15T10:09:34;2;2;
62591;PMS5003;48659;41.622;2.276;2023-04-15T10:12:04;3;2;
62591;PMS5003;48659;41.622;2.276;2023-04-15T10:14:32;1;0;
62591;PMS5003;48659;41.622;2.276;2023-04-15T10:17:01;2;0;
62591;PMS5003;48659;41.622;2.276;2023-04-15T10:19:32;1;1;
62591;PMS5003;48659;41.622;2.276;2023-04-15T10:22:02;3;3;
62591;PMS5003;48659;41.622;2.276;2023-04-15T10:24:31;2;2;
62591;PMS5003;48659;41.622;2.276;2023-04-15T10:26:59;1;1;
62591;PMS5003;48659;41.622;2.276;2023-04-15T10:29:28;1;1;
62591;PMS5003;48659;41.622;2.276;2023-04-15T10:31:56;0;0;
62591;PMS5003;48659;41.622;2.276;2023-04-15T10:34:25;1;1;
62591;PMS5003;48659;41.622;2.276;2023-04-15T10:36:54;3;1;
62591;PMS5003;48659;41.622;2.276;2023-04-15T10:39:38;2;1;
62591;PMS5003;48659;41.622;2.276;2023-04-15T10:42:07;1;1;
62591;PMS5003;48659;41.622;2.276;2023-04-15T10:44:35;1;1;
62591;PMS5003;48659;41.622;2.276;2023-04-15T10:47:05;2;1;
62591;PMS5003;48659;41.622;2.276;2023-04-15T10:49:36;0;0;
62591;PMS5003;48659;41.622;2.276;2023-04-15T10:52:10;2;1;
62591;PMS5003;48659;41.622;2.276;2023-04-15T10:54:37;0;0;
62591;PMS5003;48659;41.622;2.276;2023-04-15T10:57:06;1;1;
62591;PMS5003;48659;41.622;2.276;2023-04-15T10:59:36;2;2;
62591;PMS5003;48659;41.622;2.276;2023-04-15T11:02:37;2;1;
62591;PMS5003;48659;41.622;2.276;2023-04-15T11:05:06;1;1;
62591;PMS5003;48659;41.622;2.276;2023-04-15T11:07:36;0;0;
62591;PMS5003;48659;41.622;2.276;2023-04-15T11:12:03;1;1;
62591;PMS5003;48659;41.622;2.276;2023-04-15T11:14:32;1;1;
62591;PMS5003;48659;41.622;2.276;2023-04-15T11:16:59;1;1;
62591;PMS5003;48659;41.622;2.276;2023-04-15T11:19:34;4;3;
62591;PMS5003;48659;41.622;2.276;2023-04-15T11:22:05;3;3;
62591;PMS5003;48659;41.622;2.276;2023-04-15T11:24:34;2;2;
62591;PMS5003;48659;41.622;2.276;2023-04-15T11:27:02;3;2;
62591;PMS5003;48659;41.622;2.276;2023-04-15T11:29:29;2;2;
62591;PMS5003;48659;41.622;2.276;2023-04-15T11:32:05;4;3;
62591;PMS5003;48659;41.622;2.276;2023-04-15T11:34:34;1;1;
62591;PMS5003;48659;41.622;2.276;2023-04-15T11:37:03;3;3;
62591;PMS5003;48659;41.622;2.276;2023-04-15T11:39:31;6;3;
62591;PMS5003;48659;41.622;2.276;2023-04-15T11:41:58;14;11;
62591;PMS5003;48659;41.622;2.276;2023-04-15T11:44:25;4;4;
62591;PMS5003;48659;41.622;2.276;2023-04-15T11:46:53;21;17;
62591;PMS5003;48659;41.622;2.276;2023-04-15T11:49:28;17;17;
62591;PMS5003;48659;41.622;2.276;2023-04-15T11:51:56;6;6;
62591;PMS5003;48659;41.622;2.276;2023-04-15T11:54:23;6;3;
62591;PMS5003;48659;41.622;2.276;2023-04-15T11:56:50;11;10;
62591;PMS5003;48659;41.622;2.276;2023-04-15T11:59:18;8;6;
62591;PMS5003;48659;41.622;2.276;2023-04-15T12:01:47;7;6;
62591;PMS5003;48659;41.622;2.276;2023-04-15T12:04:15;6;6;
62591;PMS5003;48659;41.622;2.276;2023-04-15T12:06:44;14;14;
62591;PMS5003;48659;41.622;2.276;2023-04-15T12:09:12;4;4;
62591;PMS5003;48659;41.622;2.276;2023-04-15T12:11:42;5;5;
62591;PMS5003;48659;41.622;2.276;2023-04-15T12:14:11;7;3;
62591;PMS5003;48659;41.622;2.276;2023-04-15T12:16:43;5;5;
62591;PMS5003;48659;41.622;2.276;2023-04-15T12:19:13;3;3;
62591;PMS5003;48659;41.622;2.276;2023-04-15T12:21:43;4;4;
62591;PMS5003;48659;41.622;2.276;2023-04-15T12:24:12;5;4;
62591;PMS5003;48659;41.622;2.276;2023-04-15T12:26:42;5;4;
62591;PMS5003;48659;41.622;2.276;2023-04-15T12:29:11;3;3;
62591;PMS5003;48659;41.622;2.276;2023-04-15T12:31:48;7;4;
62591;PMS5003;48659;41.622;2.276;2023-04-15T12:34:17;6;4;
62591;PMS5003;48659;41.622;2.276;2023-04-15T12:36:51;6;3;
62591;PMS5003;48659;41.622;2.276;2023-04-15T12:39:20;4;4;
62591;PMS5003;48659;41.622;2.276;2023-04-15T12:41:48;4;3;
62591;PMS5003;48659;41.622;2.276;2023-04-15T12:44:15;6;6;
62591;PMS5003;48659;41.622;2.276;2023-04-15T12:46:42;4;4;
62591;PMS5003;48659;41.622;2.276;2023-04-15T12:49:11;6;5;
62591;PMS5003;48659;41.622;2.276;2023-04-15T12:51:39;5;3;
62591;PMS5003;48659;41.622;2.276;2023-04-15T12:54:06;4;4;
62591;PMS5003;48659;41.622;2.276;2023-04-15T12:56:33;4;4;
62591;PMS5003;48659;41.622;2.276;2023-04-15T12:59:01;8;7;
62591;PMS5003;48659;41.622;2.276;2023-04-15T13:01:29;5;5;
62591;PMS5003;48659;41.622;2.276;2023-04-15T13:03:56;5;5;
62591;PMS5003;48659;41.622;2.276;2023-04-15T13:06:23;4;4;
62591;PMS5003;48659;41.622;2.276;2023-04-15T13:08:51;3;3;
62591;PMS5003;48659;41.622;2.276;2023-04-15T13:11:18;6;3;
62591;PMS5003;48659;41.622;2.276;2023-04-15T13:13:46;5;2;
62591;PMS5003;48659;41.622;2.276;2023-04-15T13:16:14;3;2;
62591;PMS5003;48659;41.622;2.276;2023-04-15T13:18:41;5;2;
62591;PMS5003;48659;41.622;2.276;2023-04-15T13:21:08;4;4;
62591;PMS5003;48659;41.622;2.276;2023-04-15T13:23:35;4;4;
62591;PMS5003;48659;41.622;2.276;2023-04-15T13:26:02;3;2;
62591;PMS5003;48659;41.622;2.276;2023-04-15T13:28:30;2;2;
62591;PMS5003;48659;41.622;2.276;2023-04-15T13:30:57;5;4;
62591;PMS5003;48659;41.622;2.276;2023-04-15T13:33:24;3;3;
62591;PMS5003;48659;41.622;2.276;2023-04-15T13:35:52;3;2;
62591;PMS5003;48659;41.622;2.276;2023-04-15T13:38:19;6;4;
62591;PMS5003;48659;41.622;2.276;2023-04-15T13:40:47;8;4;
62591;PMS5003;48659;41.622;2.276;2023-04-15T13:43:14;3;3;
62591;PMS5003;48659;41.622;2.276;2023-04-15T13:45:42;5;2;
62591;PMS5003;48659;41.622;2.276;2023-04-15T13:48:10;4;3;
62591;PMS5003;48659;41.622;2.276;2023-04-15T13:50:38;5;4;
62591;PMS5003;48659;41.622;2.276;2023-04-15T13:53:05;5;5;
62591;PMS5003;48659;41.622;2.276;2023-04-15T13:55:32;3;3;
62591;PMS5003;48659;41.622;2.276;2023-04-15T13:58:00;4;3;
62591;PMS5003;48659;41.622;2.276;2023-04-15T14:00:27;5;4;
62591;PMS5003;48659;41.622;2.276;2023-04-15T14:02:54;4;4;
62591;PMS5003;48659;41.622;2.276;2023-04-15T14:05:21;5;3;
62591;PMS5003;48659;41.622;2.276;2023-04-15T14:07:48;2;2;
62591;PMS5003;48659;41.622;2.276;2023-04-15T14:10:16;5;3;
62591;PMS5003;48659;41.622;2.276;2023-04-15T14:12:44;2;2;
62591;PMS5003;48659;41.622;2.276;2023-04-15T14:15:11;4;1;
62591;PMS5003;48659;41.622;2.276;2023-04-15T14:17:39;4;2;
62591;PMS5003;48659;41.622;2.276;2023-04-15T14:20:07;3;2;
62591;PMS5003;48659;41.622;2.276;2023-04-15T14:22:34;6;3;
62591;PMS5003;48659;41.622;2.276;2023-04-15T14:25:01;5;2;
62591;PMS5003;48659;41.622;2.276;2023-04-15T14:27:29;4;1;
62591;PMS5003;48659;41.622;2.276;2023-04-15T14:29:58;5;2;
62591;PMS5003;48659;41.622;2.276;2023-04-15T14:32:25;4;2;
62591;PMS5003;48659;41.622;2.276;2023-04-15T14:34:52;3;2;
62591;PMS5003;48659;41.622;2.276;2023-04-15T14:37:26;1;1;
62591;PMS5003;48659;41.622;2.276;2023-04-15T14:39:53;4;2;
62591;PMS5003;48659;41.622;2.276;2023-04-15T14:42:21;3;3;
62591;PMS5003;48659;41.622;2.276;2023-04-15T14:44:49;7;3;
62591;PMS5003;48659;41.622;2.276;2023-04-15T14:47:16;3;3;
62591;PMS5003;48659;41.622;2.276;2023-04-15T14:49:44;3;3;
62591;PMS5003;48659;41.622;2.276;2023-04-15T14:52:11;4;1;
62591;PMS5003;48659;41.622;2.276;2023-04-15T14:54:38;2;2;
62591;PMS5003;48659;41.622;2.276;2023-04-15T14:57:05;2;2;
62591;PMS5003;48659;41.622;2.276;2023-04-15T14:59:33;2;2;
62591;PMS5003;48659;41.622;2.276;2023-04-15T15:02:01;2;2;
62591;PMS5003;48659;41.622;2.276;2023-04-15T15:04:29;1;1;
62591;PMS5003;48659;41.622;2.276;2023-04-15T15:06:57;5;2;
62591;PMS5003;48659;41.622;2.276;2023-04-15T15:09:26;3;1;
62591;PMS5003;48659;41.622;2.276;2023-04-15T15:11:53;4;2;
62591;PMS5003;48659;41.622;2.276;2023-04-15T15:14:20;2;2;
62591;PMS5003;48659;41.622;2.276;2023-04-15T15:16:47;3;3;
62591;PMS5003;48659;41.622;2.276;2023-04-15T15:19:14;3;3;
62591;PMS5003;48659;41.622;2.276;2023-04-15T15:21:41;2;2;
62591;PMS5003;48659;41.622;2.276;2023-04-15T15:24:08;5;3;
62591;PMS5003;48659;41.622;2.276;2023-04-15T15:26:36;4;2;
62591;PMS5003;48659;41.622;2.276;2023-04-15T15:29:03;3;0;
62591;PMS5003;48659;41.622;2.276;2023-04-15T15:31:32;4;2;
62591;PMS5003;48659;41.622;2.276;2023-04-15T15:34:00;4;2;
62591;PMS5003;48659;41.622;2.276;2023-04-15T15:36:29;2;2;
62591;PMS5003;48659;41.622;2.276;2023-04-15T15:38:57;3;3;
62591;PMS5003;48659;41.622;2.276;2023-04-15T15:41:24;2;2;
62591;PMS5003;48659;41.622;2.276;2023-04-15T15:43:52;2;2;
62591;PMS5003;48659;41.622;2.276;2023-04-15T15:46:21;3;3;
62591;PMS5003;48659;41.622;2.276;2023-04-15T15:48:48;3;3;
62591;PMS5003;48659;41.622;2.276;2023-04-15T15:51:15;5;3;
62591;PMS5003;48659;41.622;2.276;2023-04-15T15:53:43;2;2;
62591;PMS5003;48659;41.622;2.276;2023-04-15T15:56:10;1;1;
62591;PMS5003;48659;41.622;2.276;2023-04-15T15:58:38;1;1;
62591;PMS5003;48659;41.622;2.276;2023-04-15T16:01:05;5;4;
62591;PMS5003;48659;41.622;2.276;2023-04-15T16:03:33;4;4;
62591;PMS5003;48659;41.622;2.276;2023-04-15T16:06:00;1;1;
62591;PMS5003;48659;41.622;2.276;2023-04-15T16:08:28;4;2;
62591;PMS5003;48659;41.622;2.276;2023-04-15T16:10:56;2;1;
62591;PMS5003;48659;41.622;2.276;2023-04-15T16:13:24;3;3;
62591;PMS5003;48659;41.622;2.276;2023-04-15T16:15:52;4;3;
62591;PMS5003;48659;41.622;2.276;2023-04-15T16:18:19;2;1;
62591;PMS5003;48659;41.622;2.276;2023-04-15T16:20:46;2;2;
62591;PMS5003;48659;41.622;2.276;2023-04-15T16:23:14;3;1;
62591;PMS5003;48659;41.622;2.276;2023-04-15T16:25:42;6;3;
62591;PMS5003;48659;41.622;2.276;2023-04-15T16:28:10;2;1;
62591;PMS5003;48659;41.622;2.276;2023-04-15T16:30:38;5;3;
62591;PMS5003;48659;41.622;2.276;2023-04-15T16:33:06;3;1;
62591;PMS5003;48659;41.622;2.276;2023-04-15T16:35:34;1;0;
62591;PMS5003;48659;41.622;2.276;2023-04-15T16:38:01;2;2;
62591;PMS5003;48659;41.622;2.276;2023-04-15T16:40:29;1;1;
62591;PMS5003;48659;41.622;2.276;2023-04-15T16:42:57;5;1;
62591;PMS5003;48659;41.622;2.276;2023-04-15T16:45:25;0;0;
62591;PMS5003;48659;41.622;2.276;2023-04-15T16:47:53;10;2;
62591;PMS5003;48659;41.622;2.276;2023-04-15T16:50:20;1;1;
62591;PMS5003;48659;41.622;2.276;2023-04-15T16:52:47;2;2;
62591;PMS5003;48659;41.622;2.276;2023-04-15T16:55:15;2;1;
62591;PMS5003;48659;41.622;2.276;2023-04-15T16:57:42;3;3;
62591;PMS5003;48659;41.622;2.276;2023-04-15T17:00:10;2;2;
62591;PMS5003;48659;41.622;2.276;2023-04-15T17:02:38;5;2;
62591;PMS5003;48659;41.622;2.276;2023-04-15T17:05:06;2;2;